Time;durP1;ratioP1;P1;durP2;ratioP2;P2;SDS_P1;SDS_P2;PMS_P1;PMS_P2;Temp;Humidity;BMP_temperature;BMP_pressure;BME280_temperature;BME280_humidity;BME280_pressure;Samples;Min_cycle;Max_cycle;Signal;HPM_P1;HPM_P2
2023/01/22 00:03:53;;;;;;;2.75;2.00;;;;;;;-146.30;100.00;58188.94;10443511;28;20428;-80
2023/01/22 00:08:56;;;;;;;2.45;1.13;;;;;;;-146.30;100.00;58188.94;10420526;28;20103;-80
2023/01/22 00:13:57;;;;;;;2.08;0.85;;;;;;;-146.30;100.00;58188.94;10415681;28;20582;-79
2023/01/22 00:18:59;;;;;;;0.40;0.40;;;;;;;-146.30;100.00;58188.94;10429547;28;20037;-79
2023/01/22 00:24:02;;;;;;;0.38;0.38;;;;;;;-146.30;100.00;58188.94;10413333;28;20065;-79
2023/01/22 00:29:03;;;;;;;3.08;1.55;;;;;;;-146.30;100.00;58188.94;10420908;28;20099;-80
2023/01/22 00:34:07;;;;;;;0.32;0.25;;;;;;;-146.30;100.00;58188.94;10419543;28;20068;-79
2023/01/22 00:39:09;;;;;;;0.45;0.45;;;;;;;-146.30;100.00;58188.94;10432653;28;20099;-79
2023/01/22 00:44:11;;;;;;;0.93;0.80;;;;;;;-146.30;100.00;58188.94;10392916;28;20053;-79
2023/01/22 00:49:20;;;;;;;1.27;0.80;;;;;;;-146.30;100.00;58188.94;10418967;28;20496;-81
2023/01/22 00:54:22;;;;;;;3.75;1.55;;;;;;;-146.30;100.00;58188.94;10386244;28;20104;-81
2023/01/22 00:59:24;;;;;;;2.80;1.10;;;;;;;-146.30;100.00;58188.94;10403438;28;20073;-80
2023/01/22 01:04:26;;;;;;;1.23;0.50;;;;;;;-146.30;100.00;58188.94;10420662;28;20049;-81
2023/01/22 01:09:29;;;;;;;0.85;0.73;;;;;;;-146.30;100.00;58188.94;10416849;28;20049;-80
2023/01/22 01:14:31;;;;;;;0.75;0.55;;;;;;;-146.30;100.00;58188.94;10421460;28;20056;-79
2023/01/22 01:19:33;;;;;;;1.08;0.70;;;;;;;-146.30;100.00;58188.94;10416987;28;20555;-80
2023/01/22 01:24:35;;;;;;;2.13;1.40;;;;;;;-146.30;100.00;58188.94;10426367;28;20460;-79
2023/01/22 01:29:37;;;;;;;0.65;0.63;;;;;;;-146.30;100.00;58188.94;10400032;28;20071;-79
2023/01/22 01:34:38;;;;;;;3.33;0.98;;;;;;;-146.30;100.00;58188.94;10436384;28;20131;-79
2023/01/22 01:39:40;;;;;;;3.13;2.83;;;;;;;-146.30;100.00;58188.94;10438029;28;20087;-80
2023/01/22 01:44:41;;;;;;;1.13;1.00;;;;;;;-146.30;100.00;58188.94;10402906;28;20463;-80
2023/01/22 01:49:47;;;;;;;0.47;0.47;;;;;;;-146.30;100.00;58188.94;10427604;28;20045;-80
2023/01/22 01:54:54;;;;;;;2.28;2.13;;;;;;;-146.30;100.00;58188.94;10412058;28;20041;-79
2023/01/22 01:59:57;;;;;;;0.95;0.95;;;;;;;-146.30;100.00;58188.94;10398769;28;20413;-79
2023/01/22 02:04:59;;;;;;;1.15;0.52;;;;;;;-146.30;100.00;58188.94;10414306;28;20493;-80
2023/01/22 02:10:05;;;;;;;0.77;0.60;;;;;;;-146.30;100.00;58188.94;10428273;28;20045;-80
2023/01/22 02:15:07;;;;;;;0.73;0.73;;;;;;;-146.30;100.00;58188.94;10421975;28;20056;-80
2023/01/22 02:20:09;;;;;;;1.90;1.70;;;;;;;-146.30;100.00;58188.94;10420122;28;20053;-80
2023/01/22 02:25:11;;;;;;;0.32;0.32;;;;;;;-146.30;100.00;58188.94;10415489;28;20393;-80
2023/01/22 02:30:13;;;;;;;0.47;0.38;;;;;;;-146.30;100.00;58188.94;10414474;28;20471;-79
2023/01/22 02:35:15;;;;;;;2.83;0.40;;;;;;;-146.30;100.00;58188.94;10375545;28;20044;-79
2023/01/22 02:40:17;;;;;;;0.57;0.57;;;;;;;-146.30;100.00;58188.94;10388459;28;20050;-80
2023/01/22 02:45:19;;;;;;;1.38;1.10;;;;;;;-146.30;100.00;58188.94;10397177;28;20110;-80
2023/01/22 02:50:21;;;;;;;0.52;0.52;;;;;;;-146.30;100.00;58188.94;10380175;28;20931;-80
2023/01/22 02:55:22;;;;;;;1.30;1.20;;;;;;;-146.30;100.00;58188.94;10395568;28;20049;-80
2023/01/22 03:00:24;;;;;;;1.23;0.52;;;;;;;-146.30;100.00;58188.94;10409005;28;20041;-81
2023/01/22 03:05:29;;;;;;;1.92;0.73;;;;;;;-146.30;100.00;58188.94;10398468;28;20049;-81
2023/01/22 03:10:32;;;;;;;0.70;0.20;;;;;;;-146.30;100.00;58188.94;10386001;28;20413;-80
2023/01/22 03:21:18;;;;;;;0.90;0.73;;;;;;;-146.30;100.00;58188.94;10410864;28;20095;-80
2023/01/22 03:26:22;;;;;;;0.30;0.30;;;;;;;-146.30;100.00;58188.94;10415268;28;20038;-80
2023/01/22 03:31:25;;;;;;;0.95;0.47;;;;;;;-146.30;100.00;58188.94;10402568;28;20053;-81
2023/01/22 03:36:26;;;;;;;0.98;0.90;;;;;;;-146.30;100.00;58188.94;10405401;28;20473;-80
2023/01/22 03:41:33;;;;;;;0.30;0.30;;;;;;;-146.30;100.00;58188.94;10398122;28;20125;-80
2023/01/22 03:46:36;;;;;;;0.00;0.00;;;;;;;-146.30;100.00;58188.94;10409771;28;20037;-80
2023/01/22 03:51:39;;;;;;;0.43;0.43;;;;;;;-146.30;100.00;58188.94;10403260;28;20121;-80
2023/01/22 03:56:41;;;;;;;0.30;0.30;;;;;;;-146.30;100.00;58188.94;10414012;28;20049;-80
2023/01/22 04:01:53;;;;;;;3.25;0.98;;;;;;;-146.30;100.00;58188.94;10413307;28;20046;-80
2023/01/22 04:06:55;;;;;;;0.55;0.47;;;;;;;-146.30;100.00;58188.94;10421387;28;20096;-80
2023/01/22 04:11:57;;;;;;;0.20;0.20;;;;;;;-146.30;100.00;58188.94;10399202;28;20038;-80
2023/01/22 04:17:00;;;;;;;2.85;1.13;;;;;;;-146.30;100.00;58188.94;10419718;28;20042;-80
2023/01/22 04:22:31;;;;;;;;;;;;;;;-146.30;100.00;58188.94;10429962;28;20041;-81
2023/01/22 04:27:36;;;;;;;0.10;0.08;;;;;;;-146.30;100.00;58188.94;10439333;28;19921;-80
2023/01/22 04:32:38;;;;;;;0.00;0.00;;;;;;;-146.30;100.00;58188.94;10401300;28;20052;-80
2023/01/22 04:37:53;;;;;;;0.50;0.50;;;;;;;-146.30;100.00;58188.94;10427544;28;20036;-80
2023/01/22 04:43:04;;;;;;;0.00;0.00;;;;;;;-146.30;100.00;58188.94;10456933;28;20051;-81
2023/01/22 04:48:08;;;;;;;1.30;0.88;;;;;;;-146.30;100.00;58188.94;10417169;28;20488;-80
2023/01/22 04:53:14;;;;;;;0.20;0.20;;;;;;;-146.30;100.00;58188.94;10444173;28;20128;-80
2023/01/22 04:58:16;;;;;;;0.10;0.10;;;;;;;-146.30;100.00;58188.94;10445165;28;20057;-80
2023/01/22 05:03:20;;;;;;;0.00;0.00;;;;;;;-146.30;100.00;58188.94;10440580;28;20053;-80
2023/01/22 05:08:21;;;;;;;0.20;0.20;;;;;;;-146.30;100.00;58188.94;10433058;28;20045;-80
2023/01/22 05:13:24;;;;;;;0.05;0.05;;;;;;;-146.30;100.00;58188.94;10436770;28;20079;-81
2023/01/22 05:18:26;;;;;;;0.15;0.15;;;;;;;-146.30;100.00;58188.94;10431513;28;20052;-80
2023/01/22 05:23:28;;;;;;;0.60;0.60;;;;;;;-146.30;100.00;58188.94;10444762;28;20075;-86
2023/01/22 05:28:30;;;;;;;0.63;0.63;;;;;;;-146.30;100.00;58188.94;10434939;28;20038;-88
2023/01/22 05:33:41;;;;;;;0.22;0.22;;;;;;;-146.30;100.00;58188.94;10393414;28;20050;-86
2023/01/22 05:38:45;;;;;;;0.43;0.43;;;;;;;-146.30;100.00;58188.94;10395283;28;20416;-85
2023/01/22 05:43:48;;;;;;;0.00;0.00;;;;;;;-146.30;100.00;58188.94;10430718;28;20077;-86
2023/01/22 05:48:55;;;;;;;0.85;0.75;;;;;;;-146.30;100.00;58188.94;10426108;28;20152;-85
2023/01/22 05:54:00;;;;;;;0.80;0.75;;;;;;;-146.30;100.00;58188.94;10416738;28;20041;-83
2023/01/22 05:59:04;;;;;;;0.00;0.00;;;;;;;-146.30;100.00;58188.94;10389565;28;20038;-83
2023/01/22 06:04:06;;;;;;;0.45;0.45;;;;;;;-146.30;100.00;58188.94;10402084;28;20072;-83
2023/01/22 06:09:11;;;;;;;0.60;0.60;;;;;;;-146.30;100.00;58188.94;10408537;28;20048;-83
2023/01/22 06:14:14;;;;;;;0.28;0.28;;;;;;;-146.30;100.00;58188.94;10420657;28;20501;-83
2023/01/22 06:19:16;;;;;;;0.10;0.10;;;;;;;-146.30;100.00;58188.94;10411253;28;20497;-84
2023/01/22 06:24:28;;;;;;;0.15;0.15;;;;;;;-146.30;100.00;58188.94;10410682;28;20515;-83
2023/01/22 06:29:30;;;;;;;0.77;0.77;;;;;;;-146.30;100.00;58188.94;10385063;28;20049;-83
2023/01/22 06:34:32;;;;;;;1.45;0.57;;;;;;;-146.30;100.00;58188.94;10397870;28;20135;-84
2023/01/22 06:39:36;;;;;;;0.10;0.10;;;;;;;-146.30;100.00;58188.94;10415721;28;20049;-84
2023/01/22 06:44:49;;;;;;;0.63;0.63;;;;;;;-146.30;100.00;58188.94;10387936;28;20042;-87
2023/01/22 06:49:52;;;;;;;0.35;0.35;;;;;;;-146.30;100.00;58188.94;10440240;28;20111;-87
2023/01/22 06:54:54;;;;;;;0.10;0.10;;;;;;;-146.30;100.00;58188.94;10406447;28;20045;-88
2023/01/22 06:59:58;;;;;;;0.15;0.15;;;;;;;-146.30;100.00;58188.94;10412036;28;20088;-88
2023/01/22 07:05:00;;;;;;;3.30;1.35;;;;;;;-146.30;100.00;58188.94;10423224;28;20061;-84
2023/01/22 07:10:02;;;;;;;0.10;0.10;;;;;;;-146.30;100.00;58188.94;10437221;28;20052;-83
2023/01/22 07:15:05;;;;;;;0.20;0.20;;;;;;;-146.30;100.00;58188.94;10440188;28;20052;-84
2023/01/22 07:20:08;;;;;;;0.40;0.40;;;;;;;-146.30;100.00;58188.94;10426439;28;20045;-85
2023/01/22 07:25:09;;;;;;;0.05;0.05;;;;;;;-146.30;100.00;58188.94;10417758;28;21751;-84
2023/01/22 07:30:11;;;;;;;0.63;0.52;;;;;;;-146.30;100.00;58188.94;10440470;28;20033;-83
2023/01/22 07:35:13;;;;;;;0.10;0.10;;;;;;;-146.30;100.00;58188.94;10427866;28;20065;-85
2023/01/22 07:40:15;;;;;;;0.57;0.40;;;;;;;-146.30;100.00;58188.94;10429419;28;20048;-85
2023/01/22 07:45:18;;;;;;;0.08;0.08;;;;;;;-146.30;100.00;58188.94;10408141;28;20057;-84
2023/01/22 07:50:21;;;;;;;0.00;0.00;;;;;;;-146.30;100.00;58188.94;10433499;28;20056;-84
2023/01/22 07:55:23;;;;;;;0.03;0.03;;;;;;;-146.30;100.00;58188.94;10417826;28;20132;-84
2023/01/22 08:00:29;;;;;;;0.17;0.17;;;;;;;-146.30;100.00;58188.94;10460166;28;20040;-87
2023/01/22 08:05:31;;;;;;;0.20;0.20;;;;;;;-146.30;100.00;58188.94;10420905;28;20061;-88
2023/01/22 08:10:32;;;;;;;0.10;0.10;;;;;;;-146.30;100.00;58188.94;10433539;28;20034;-88
2023/01/22 08:15:34;;;;;;;0.40;0.40;;;;;;;-146.30;100.00;58188.94;10420470;28;20056;-88
2023/01/22 08:20:36;;;;;;;1.35;1.13;;;;;;;-146.30;100.00;58188.94;10437943;28;20041;-86
2023/01/22 08:25:38;;;;;;;0.00;0.00;;;;;;;-146.30;100.00;58188.94;10420430;28;20053;-86
2023/01/22 08:30:40;;;;;;;0.22;0.22;;;;;;;-146.30;100.00;58188.94;10433375;28;20382;-87
2023/01/22 08:35:48;;;;;;;0.10;0.10;;;;;;;-146.30;100.00;58188.94;10430315;28;20041;-84
2023/01/22 08:40:51;;;;;;;0.30;0.30;;;;;;;-146.30;100.00;58188.94;10417666;28;20083;-87
2023/01/22 08:45:53;;;;;;;0.00;0.00;;;;;;;-146.30;100.00;58188.94;10417231;28;20047;-86
2023/01/22 08:50:58;;;;;;;0.20;0.20;;;;;;;-146.30;100.00;58188.94;10415790;28;20073;-85
2023/01/22 08:56:00;;;;;;;0.43;0.43;;;;;;;-146.30;100.00;58188.94;10399518;28;20057;-87
2023/01/22 09:01:02;;;;;;;0.20;0.20;;;;;;;-146.30;100.00;58188.94;10387904;28;20606;-87
2023/01/22 09:06:04;;;;;;;0.60;0.38;;;;;;;-146.30;100.00;58188.94;10428148;28;20053;-87
2023/01/22 09:11:06;;;;;;;0.10;0.10;;;;;;;-146.30;100.00;58188.94;10440834;28;20039;-85
2023/01/22 09:16:11;;;;;;;0.70;0.57;;;;;;;-146.30;100.00;58188.94;10410319;28;20045;-86
2023/01/22 09:21:13;;;;;;;0.45;0.45;;;;;;;-146.30;100.00;58188.94;10418864;28;20391;-87
2023/01/22 09:26:14;;;;;;;2.50;0.75;;;;;;;-146.30;100.00;58188.94;10420262;28;20080;-86
2023/01/22 09:31:16;;;;;;;0.63;0.40;;;;;;;-146.30;100.00;58188.94;10398641;28;20084;-87
2023/01/22 09:36:18;;;;;;;0.13;0.13;;;;;;;-146.30;100.00;58188.94;10415147;28;20049;-84
2023/01/22 09:41:33;;;;;;;0.10;0.10;;;;;;;-146.30;100.00;58188.94;10411966;28;20472;-86
2023/01/22 09:46:48;;;;;;;0.10;0.10;;;;;;;-146.30;100.00;58188.94;10415023;28;20045;-85
2023/01/22 09:51:59;;;;;;;0.45;0.45;;;;;;;-146.30;100.00;58188.94;10419516;28;20472;-86
2023/01/22 09:57:03;;;;;;;0.10;0.10;;;;;;;-146.30;100.00;58188.94;10420559;28;20523;-87
2023/01/22 10:02:43;;;;;;;0.13;0.13;;;;;;;-146.30;100.00;58188.94;10427976;28;20408;-86
2023/01/22 10:08:14;;;;;;;0.00;0.00;;;;;;;-146.30;100.00;58188.94;10438602;28;20056;-85
2023/01/22 10:13:20;;;;;;;0.40;0.40;;;;;;;-146.30;100.00;58188.94;10406202;28;20049;-85
2023/01/22 10:18:44;;;;;;;0.10;0.10;;;;;;;-146.30;100.00;58188.94;10404165;28;20060;-85
2023/01/22 10:23:47;;;;;;;0.20;0.20;;;;;;;-146.30;100.00;58188.94;10404227;28;20073;-84
2023/01/22 10:28:58;;;;;;;1.70;1.10;;;;;;;-146.30;100.00;58188.94;10409523;28;20088;-85
2023/01/22 10:34:15;;;;;;;0.15;0.15;;;;;;;-146.30;100.00;58188.94;10410949;28;20076;-84
2023/01/22 10:39:19;;;;;;;12.95;1.10;;;;;;;-146.30;100.00;58188.94;10407052;28;20038;-84
2023/01/22 10:44:23;;;;;;;0.00;0.00;;;;;;;-146.30;100.00;58188.94;10404698;28;20531;-84
2023/01/22 10:49:26;;;;;;;0.00;0.00;;;;;;;-146.30;100.00;58188.94;10394659;28;20049;-83
2023/01/22 10:54:40;;;;;;;1.40;1.02;;;;;;;-146.30;100.00;58188.94;10412524;28;20115;-83
2023/01/22 10:59:48;;;;;;;0.00;0.00;;;;;;;-146.30;100.00;58188.94;10396271;28;20103;-84
2023/01/22 11:04:51;;;;;;;0.00;0.00;;;;;;;-146.30;100.00;58188.94;10399131;28;20096;-84
2023/01/22 11:10:07;;;;;;;0.52;0.52;;;;;;;-146.30;100.00;58188.94;10402937;28;20045;-83
2023/01/22 11:15:21;;;;;;;0.00;0.00;;;;;;;-146.30;100.00;58188.94;10411038;28;20045;-84
2023/01/22 11:20:45;;;;;;;0.00;0.00;;;;;;;-146.30;100.00;58188.94;10411197;28;20037;-83
2023/01/22 11:26:02;;;;;;;4.30;1.00;;;;;;;-146.30;100.00;58188.94;10412775;28;20056;-84
2023/01/22 11:31:18;;;;;;;1.27;1.08;;;;;;;-146.30;100.00;58188.94;10418785;28;20043;-83
2023/01/22 11:36:43;;;;;;;1.42;1.05;;;;;;;-146.30;100.00;58188.94;10437038;28;20052;-83
2023/01/22 11:42:12;;;;;;;0.10;0.10;;;;;;;-146.30;100.00;58188.94;10397064;28;20099;-82
2023/01/22 11:47:47;;;;;;;0.65;0.45;;;;;;;-146.30;100.00;58188.94;10420660;28;20132;-81
2023/01/22 11:53:17;;;;;;;0.32;0.32;;;;;;;-146.30;100.00;58188.94;10400845;28;20450;-81
2023/01/22 11:58:18;;;;;;;1.20;0.63;;;;;;;-146.30;100.00;58188.94;10418863;28;20083;-80
2023/01/22 12:03:38;;;;;;;0.43;0.43;;;;;;;-146.30;100.00;58188.94;10423170;28;20077;-81
2023/01/22 12:08:57;;;;;;;0.10;0.10;;;;;;;-146.30;100.00;58188.94;10456785;28;20051;-80
2023/01/22 12:14:17;;;;;;;0.43;0.43;;;;;;;-146.30;100.00;58188.94;10417589;28;20136;-81
2023/01/22 12:19:44;;;;;;;0.23;0.23;;;;;;;-146.30;100.00;58188.94;10423720;28;20098;-80
2023/01/22 12:25:18;;;;;;;0.20;0.20;;;;;;;-146.30;100.00;58188.94;10405430;28;20045;-81
2023/01/22 12:30:29;;;;;;;0.20;0.20;;;;;;;-146.30;100.00;58188.94;10407621;28;20064;-80
2023/01/22 12:35:31;;;;;;;0.10;0.10;;;;;;;-146.30;100.00;58188.94;10408800;28;20545;-83
2023/01/22 12:40:57;;;;;;;0.38;0.38;;;;;;;-146.30;100.00;58188.94;10410578;28;20041;-83
2023/01/22 12:46:14;;;;;;;0.43;0.43;;;;;;;-146.30;100.00;58188.94;10395692;28;20128;-84
2023/01/22 12:51:39;;;;;;;0.90;0.45;;;;;;;-146.30;100.00;58188.94;10416170;28;20485;-85
2023/01/22 12:56:41;;;;;;;0.30;0.30;;;;;;;-146.30;100.00;58188.94;10421399;28;20049;-84
2023/01/22 13:01:43;;;;;;;2.20;1.27;;;;;;;-146.30;100.00;58188.94;10418249;28;20129;-83
2023/01/22 13:06:45;;;;;;;0.68;0.68;;;;;;;-146.30;100.00;58188.94;10403009;28;20071;-83
2023/01/22 13:11:48;;;;;;;0.00;0.00;;;;;;;-146.30;100.00;58188.94;10415759;28;20072;-83
2023/01/22 13:16:53;;;;;;;1.10;1.05;;;;;;;-146.30;100.00;58188.94;10413524;28;20041;-84
2023/01/22 13:21:59;;;;;;;0.17;0.17;;;;;;;-146.30;100.00;58188.94;10428908;28;20046;-83
2023/01/22 13:27:02;;;;;;;0.52;0.52;;;;;;;-146.30;100.00;58188.94;10414213;28;20068;-83
2023/01/22 13:32:15;;;;;;;0.20;0.20;;;;;;;-146.30;100.00;58188.94;10412494;28;20060;-83
2023/01/22 13:37:23;;;;;;;1.10;0.38;;;;;;;-146.30;100.00;58188.94;10399007;28;20433;-84
2023/01/22 13:42:28;;;;;;;0.32;0.32;;;;;;;-146.30;100.00;58188.94;10413761;28;20132;-82
2023/01/22 13:47:34;;;;;;;0.10;0.10;;;;;;;-146.30;100.00;58188.94;10410426;28;20041;-83
2023/01/22 13:52:36;;;;;;;1.33;1.23;;;;;;;-146.30;100.00;58188.94;10419909;28;20087;-84
2023/01/22 13:57:45;;;;;;;0.47;0.47;;;;;;;-146.30;100.00;58188.94;10411858;28;20504;-84
2023/01/22 14:02:47;;;;;;;0.50;0.50;;;;;;;-146.30;100.00;58188.94;10420470;28;20059;-84
2023/01/22 14:07:49;;;;;;;0.30;0.30;;;;;;;-146.30;100.00;58188.94;10414790;28;20375;-86
2023/01/22 14:13:05;;;;;;;0.30;0.30;;;;;;;-146.30;100.00;58188.94;10396568;28;20049;-86
2023/01/22 14:18:20;;;;;;;0.00;0.00;;;;;;;-146.30;100.00;58188.94;10416327;28;20048;-82
2023/01/22 14:23:21;;;;;;;0.20;0.20;;;;;;;-146.30;100.00;58188.94;10409346;28;20073;-82
2023/01/22 14:28:23;;;;;;;0.10;0.10;;;;;;;-146.30;100.00;58188.94;10409763;28;20041;-82
2023/01/22 14:33:29;;;;;;;0.17;0.17;;;;;;;-146.30;100.00;58188.94;10413103;28;20088;-82
2023/01/22 14:38:30;;;;;;;0.10;0.10;;;;;;;-146.30;100.00;58188.94;10418888;28;20037;-82
2023/01/22 14:43:34;;;;;;;0.28;0.22;;;;;;;-146.30;100.00;58188.94;10401290;28;20045;-82
2023/01/22 14:48:37;;;;;;;4.65;3.75;;;;;;;-146.30;100.00;58188.94;10393722;28;20049;-81
2023/01/22 14:53:39;;;;;;;0.20;0.20;;;;;;;-146.30;100.00;58188.94;10402405;28;20046;-82
2023/01/22 14:58:40;;;;;;;2.40;1.55;;;;;;;-146.30;100.00;58188.94;10396734;28;20042;-83
2023/01/22 15:03:42;;;;;;;0.35;0.35;;;;;;;-146.30;100.00;58188.94;10378538;28;20129;-80
2023/01/22 15:08:45;;;;;;;0.30;0.30;;;;;;;-146.30;100.00;58188.94;10397889;28;20488;-80
2023/01/22 15:13:49;;;;;;;0.25;0.25;;;;;;;-146.30;100.00;58188.94;10391834;28;20057;-80
2023/01/22 15:18:55;;;;;;;0.20;0.20;;;;;;;-146.30;100.00;58188.94;10415311;28;20053;-81
2023/01/22 15:23:56;;;;;;;0.10;0.10;;;;;;;-146.30;100.00;58188.94;10408115;28;20045;-80
2023/01/22 15:28:58;;;;;;;0.40;0.40;;;;;;;-146.30;100.00;58188.94;10394389;28;20073;-81
2023/01/22 15:34:01;;;;;;;0.98;0.68;;;;;;;-146.30;100.00;58188.94;10406693;28;20045;-80
2023/01/22 15:39:07;;;;;;;0.03;0.03;;;;;;;-146.30;100.00;58188.94;10384780;28;20099;-81
2023/01/22 15:44:11;;;;;;;0.35;0.35;;;;;;;-146.30;100.00;58188.94;10381676;28;20101;-80
2023/01/22 15:49:13;;;;;;;0.00;0.00;;;;;;;-146.30;100.00;58188.94;10406989;28;20124;-80
2023/01/22 15:54:15;;;;;;;1.13;0.88;;;;;;;-146.30;100.00;58188.94;10407396;28;20112;-81
2023/01/22 15:59:17;;;;;;;0.20;0.20;;;;;;;-146.30;100.00;58188.94;10412014;28;20180;-82
2023/01/22 16:04:19;;;;;;;0.05;0.05;;;;;;;-146.30;100.00;58188.94;10408093;28;20141;-82
2023/01/22 16:09:21;;;;;;;0.30;0.30;;;;;;;-146.30;100.00;58188.94;10400671;28;20065;-82
2023/01/22 16:14:22;;;;;;;0.00;0.00;;;;;;;-146.30;100.00;58188.94;10406467;28;20072;-82
2023/01/22 16:19:24;;;;;;;0.32;0.32;;;;;;;-146.30;100.00;58188.94;10400701;28;20072;-83
2023/01/22 16:24:26;;;;;;;0.45;0.35;;;;;;;-146.30;100.00;58188.94;10421170;28;20060;-83
2023/01/22 16:29:27;;;;;;;0.20;0.20;;;;;;;-146.30;100.00;58188.94;10419055;28;20045;-83
2023/01/22 16:34:29;;;;;;;0.28;0.28;;;;;;;-146.30;100.00;58188.94;10413866;28;20075;-83
2023/01/22 16:39:32;;;;;;;1.98;0.68;;;;;;;-146.30;100.00;58188.94;10427069;28;20080;-83
2023/01/22 16:44:34;;;;;;;0.35;0.35;;;;;;;-146.30;100.00;58188.94;10414121;28;20050;-84
2023/01/22 16:49:35;;;;;;;1.85;0.73;;;;;;;-146.30;100.00;58188.94;10419096;28;20553;-83
2023/01/22 16:54:41;;;;;;;0.38;0.17;;;;;;;-146.30;100.00;58188.94;10439598;28;20546;-83
2023/01/22 16:59:43;;;;;;;0.55;0.55;;;;;;;-146.30;100.00;58188.94;10409710;28;20112;-83
2023/01/22 17:04:44;;;;;;;0.52;0.52;;;;;;;-146.30;100.00;58188.94;10422648;28;20072;-84
2023/01/22 17:09:46;;;;;;;0.40;0.40;;;;;;;-146.30;100.00;58188.94;10420493;28;20045;-83
2023/01/22 17:14:51;;;;;;;0.22;0.22;;;;;;;-146.30;100.00;58188.94;10417439;28;20050;-82
2023/01/22 17:19:53;;;;;;;0.20;0.20;;;;;;;-146.30;100.00;58188.94;10419313;28;20045;-83
2023/01/22 17:24:54;;;;;;;0.30;0.30;;;;;;;-146.30;100.00;58188.94;10423136;28;20069;-83
2023/01/22 17:29:56;;;;;;;0.15;0.15;;;;;;;-146.30;100.00;58188.94;10442614;28;20400;-83
2023/01/22 17:34:58;;;;;;;0.20;0.20;;;;;;;-146.30;100.00;58188.94;10442480;28;20051;-83
2023/01/22 17:39:59;;;;;;;1.15;1.05;;;;;;;-146.30;100.00;58188.94;10455201;28;20067;-83
2023/01/22 17:45:01;;;;;;;0.38;0.38;;;;;;;-146.30;100.00;58188.94;10444340;28;20073;-83
2023/01/22 17:50:10;;;;;;;0.63;0.57;;;;;;;-146.30;100.00;58188.94;10429473;28;20404;-83
2023/01/22 17:55:13;;;;;;;0.20;0.20;;;;;;;-146.30;100.00;58188.94;10445579;28;20282;-83
2023/01/22 18:00:16;;;;;;;0.45;0.40;;;;;;;-146.30;100.00;58188.94;10456410;28;20095;-84
2023/01/22 18:05:18;;;;;;;0.65;0.57;;;;;;;-146.30;100.00;58188.94;10442094;28;20049;-83
2023/01/22 18:10:20;;;;;;;0.30;0.30;;;;;;;-146.30;100.00;58188.94;10418857;28;20041;-84
2023/01/22 18:15:21;;;;;;;0.40;0.40;;;;;;;-146.30;100.00;58188.94;10437443;28;20048;-83
2023/01/22 18:20:24;;;;;;;0.52;0.43;;;;;;;-146.30;100.00;58188.94;10389539;28;20046;-83
2023/01/22 18:25:55;;;;;;;0.03;0.03;;;;;;;-146.30;100.00;58188.94;10424692;28;20493;-84
2023/01/22 18:31:09;;;;;;;0.52;0.52;;;;;;;-146.30;100.00;58188.94;10411641;28;20080;-84
2023/01/22 18:36:13;;;;;;;0.52;0.43;;;;;;;-146.30;100.00;58188.94;10407272;28;20421;-84
2023/01/22 18:41:22;;;;;;;1.17;1.15;;;;;;;-146.30;100.00;58188.94;10403560;28;20034;-84
2023/01/22 18:46:27;;;;;;;0.08;0.08;;;;;;;-146.30;100.00;58188.94;10401315;28;20077;-83
2023/01/22 18:51:30;;;;;;;0.20;0.20;;;;;;;-146.30;100.00;58188.94;10392951;28;20370;-83
2023/01/22 18:56:32;;;;;;;0.10;0.10;;;;;;;-146.30;100.00;58188.94;10412160;28;20041;-84
2023/01/22 19:01:39;;;;;;;1.45;0.52;;;;;;;-146.30;100.00;58188.94;10415254;28;20045;-83
2023/01/22 19:06:43;;;;;;;0.30;0.20;;;;;;;-146.30;100.00;58188.94;10409490;28;20042;-84
2023/01/22 19:11:46;;;;;;;0.70;0.47;;;;;;;-146.30;100.00;58188.94;10408411;28;20637;-83
2023/01/22 19:16:51;;;;;;;0.22;0.22;;;;;;;-146.30;100.00;58188.94;10390269;28;20049;-83
2023/01/22 19:21:54;;;;;;;0.45;0.43;;;;;;;-146.30;100.00;58188.94;10395040;28;20049;-83
2023/01/22 19:27:01;;;;;;;0.17;0.17;;;;;;;-146.30;100.00;58188.94;10404701;28;20081;-83
2023/01/22 19:32:02;;;;;;;0.88;0.52;;;;;;;-146.30;100.00;58188.94;10413468;28;20046;-82
2023/01/22 19:37:05;;;;;;;0.10;0.10;;;;;;;-146.30;100.00;58188.94;10414755;28;20045;-83
2023/01/22 19:42:07;;;;;;;1.10;0.57;;;;;;;-146.30;100.00;58188.94;10404189;28;20072;-83
2023/01/22 19:47:09;;;;;;;0.30;0.30;;;;;;;-146.30;100.00;58188.94;10427215;28;20086;-83
2023/01/22 19:52:12;;;;;;;0.90;0.47;;;;;;;-146.30;100.00;58188.94;10405490;28;20577;-84
2023/01/22 19:57:16;;;;;;;0.03;0.03;;;;;;;-146.30;100.00;58188.94;10429508;28;20057;-84
2023/01/22 20:02:18;;;;;;;0.25;0.25;;;;;;;-146.30;100.00;58188.94;10429775;28;20040;-84
2023/01/22 20:07:21;;;;;;;0.35;0.35;;;;;;;-146.30;100.00;58188.94;10455347;28;20405;-83
2023/01/22 20:12:23;;;;;;;0.10;0.10;;;;;;;-146.30;100.00;58188.94;10441230;28;20041;-83
2023/01/22 20:17:26;;;;;;;2.53;2.35;;;;;;;-146.30;100.00;58188.94;10428646;28;20111;-83
2023/01/22 20:22:28;;;;;;;0.70;0.47;;;;;;;-146.30;100.00;58188.94;10432469;28;20049;-83
2023/01/22 20:27:29;;;;;;;0.95;0.60;;;;;;;-146.30;100.00;58188.94;10420475;28;20091;-83
2023/01/22 20:32:31;;;;;;;0.30;0.30;;;;;;;-146.30;100.00;58188.94;10389816;28;20107;-83
2023/01/22 20:37:33;;;;;;;0.10;0.10;;;;;;;-146.30;100.00;58188.94;10384183;28;20480;-83
2023/01/22 20:42:34;;;;;;;1.55;1.20;;;;;;;-146.30;100.00;58188.94;10392213;28;20053;-84
2023/01/22 20:47:37;;;;;;;2.42;1.45;;;;;;;-146.30;100.00;58188.94;10408443;28;20562;-83
2023/01/22 20:52:38;;;;;;;3.60;0.70;;;;;;;-146.30;100.00;58188.94;10395700;28;20037;-83
2023/01/22 20:57:40;;;;;;;1.73;1.63;;;;;;;-146.30;100.00;58188.94;10412436;28;20072;-84
2023/01/22 21:02:42;;;;;;;0.17;0.17;;;;;;;-146.30;100.00;58188.94;10413418;28;20042;-83
2023/01/22 21:07:43;;;;;;;0.65;0.63;;;;;;;-146.30;100.00;58188.94;10416999;28;20103;-84
2023/01/22 21:12:45;;;;;;;0.05;0.05;;;;;;;-146.30;100.00;58188.94;10422027;28;20097;-84
2023/01/22 21:17:47;;;;;;;0.10;0.10;;;;;;;-146.30;100.00;58188.94;10413477;28;20076;-84
2023/01/22 21:22:49;;;;;;;0.60;0.38;;;;;;;-146.30;100.00;58188.94;10413812;28;20068;-84
2023/01/22 21:27:50;;;;;;;0.88;0.82;;;;;;;-146.30;100.00;58188.94;10440443;28;20500;-84
2023/01/22 21:32:52;;;;;;;0.15;0.15;;;;;;;-146.30;100.00;58188.94;10441260;28;20041;-84
2023/01/22 21:37:53;;;;;;;0.77;0.57;;;;;;;-146.30;100.00;58188.94;10424705;28;20060;-83
2023/01/22 21:48:15;;;;;;;0.08;0.08;;;;;;;-146.30;100.00;58188.94;10428663;28;20115;-84
2023/01/22 21:53:17;;;;;;;0.95;0.68;;;;;;;-146.30;100.00;58188.94;10425919;28;20052;-85
2023/01/22 21:58:19;;;;;;;2.45;1.67;;;;;;;-146.30;100.00;58188.94;10414789;28;20054;-84
2023/01/22 22:03:21;;;;;;;1.00;0.75;;;;;;;-146.30;100.00;58188.94;10430818;28;20100;-84
2023/01/22 22:08:22;;;;;;;12.18;1.40;;;;;;;-146.30;100.00;58188.94;10428502;28;20044;-84
2023/01/22 22:13:24;;;;;;;2.67;0.63;;;;;;;-146.30;100.00;58188.94;10405464;28;20052;-85
2023/01/22 22:18:26;;;;;;;0.80;0.40;;;;;;;-146.30;100.00;58188.94;10440144;28;20076;-85
2023/01/22 22:23:29;;;;;;;0.20;0.20;;;;;;;-146.30;100.00;58188.94;10423614;28;20151;-86
2023/01/22 22:28:34;;;;;;;0.65;0.65;;;;;;;-146.30;100.00;58188.94;10407936;28;20046;-85
2023/01/22 22:33:41;;;;;;;0.57;0.57;;;;;;;-146.30;100.00;58188.94;10405268;28;20045;-83
2023/01/22 22:38:42;;;;;;;0.52;0.52;;;;;;;-146.30;100.00;58188.94;10389553;28;20132;-84
2023/01/22 22:43:46;;;;;;;0.25;0.25;;;;;;;-146.30;100.00;58188.94;10415071;28;20049;-84
2023/01/22 22:48:49;;;;;;;0.20;0.20;;;;;;;-146.30;100.00;58188.94;10408991;28;20458;-85
2023/01/22 22:53:57;;;;;;;0.52;0.52;;;;;;;-146.30;100.00;58188.94;10391696;28;20104;-85
2023/01/22 22:59:00;;;;;;;0.50;0.50;;;;;;;-146.30;100.00;58188.94;10391695;28;20042;-85
2023/01/22 23:04:03;;;;;;;0.70;0.52;;;;;;;-146.30;100.00;58188.94;10390541;28;20052;-84